sensor_id;sensor_type;location;lat;lon;timestamp;temperature;humidity
58529;DHT22;44322;52.968;5.816;2022-09-02T00:01:30;15.70;99.90
58529;DHT22;44322;52.968;5.816;2022-09-02T00:04:00;15.70;99.90
58529;DHT22;44322;52.968;5.816;2022-09-02T00:06:27;15.60;99.90
58529;DHT22;44322;52.968;5.816;2022-09-02T00:08:54;15.60;99.90
58529;DHT22;44322;52.968;5.816;2022-09-02T00:11:23;15.60;99.90
58529;DHT22;44322;52.968;5.816;2022-09-02T00:13:50;15.60;99.90
58529;DHT22;44322;52.968;5.816;2022-09-02T00:16:16;15.60;99.90
58529;DHT22;44322;52.968;5.816;2022-09-02T00:18:43;15.60;99.90
58529;DHT22;44322;52.968;5.816;2022-09-02T00:21:14;15.60;99.90
58529;DHT22;44322;52.968;5.816;2022-09-02T00:23:42;15.50;99.90
58529;DHT22;44322;52.968;5.816;2022-09-02T00:26:08;15.50;99.90
58529;DHT22;44322;52.968;5.816;2022-09-02T00:28:34;15.50;99.90
58529;DHT22;44322;52.968;5.816;2022-09-02T00:31:02;15.50;99.90
58529;DHT22;44322;52.968;5.816;2022-09-02T00:33:30;15.50;99.90
58529;DHT22;44322;52.968;5.816;2022-09-02T00:36:00;15.50;99.90
58529;DHT22;44322;52.968;5.816;2022-09-02T00:38:28;15.40;99.90
58529;DHT22;44322;52.968;5.816;2022-09-02T00:40:55;15.40;99.90
58529;DHT22;44322;52.968;5.816;2022-09-02T00:46:04;15.40;99.90
58529;DHT22;44322;52.968;5.816;2022-09-02T00:48:31;15.40;99.90
58529;DHT22;44322;52.968;5.816;2022-09-02T00:50:57;15.30;99.90
58529;DHT22;44322;52.968;5.816;2022-09-02T00:53:23;15.30;99.90
58529;DHT22;44322;52.968;5.816;2022-09-02T00:55:51;15.30;99.90
58529;DHT22;44322;52.968;5.816;2022-09-02T00:58:21;15.30;99.90
58529;DHT22;44322;52.968;5.816;2022-09-02T01:00:50;15.30;99.90
58529;DHT22;44322;52.968;5.816;2022-09-02T01:03:19;15.20;99.90
58529;DHT22;44322;52.968;5.816;2022-09-02T01:05:48;15.20;99.90
58529;DHT22;44322;52.968;5.816;2022-09-02T01:08:20;15.20;99.90
58529;DHT22;44322;52.968;5.816;2022-09-02T01:10:51;15.10;99.90
58529;DHT22;44322;52.968;5.816;2022-09-02T01:13:22;15.10;99.90
58529;DHT22;44322;52.968;5.816;2022-09-02T01:16:27;15.10;99.90
58529;DHT22;44322;52.968;5.816;2022-09-02T01:18:48;15.00;99.90
58529;DHT22;44322;52.968;5.816;2022-09-02T01:21:15;15.00;99.90
58529;DHT22;44322;52.968;5.816;2022-09-02T01:23:40;15.00;99.90
58529;DHT22;44322;52.968;5.816;2022-09-02T01:26:06;15.00;99.90
58529;DHT22;44322;52.968;5.816;2022-09-02T01:28:33;14.90;99.90
58529;DHT22;44322;52.968;5.816;2022-09-02T01:31:00;14.90;99.90
58529;DHT22;44322;52.968;5.816;2022-09-02T01:33:26;14.90;99.90
58529;DHT22;44322;52.968;5.816;2022-09-02T01:35:53;14.90;99.90
58529;DHT22;44322;52.968;5.816;2022-09-02T01:38:20;14.80;99.90
58529;DHT22;44322;52.968;5.816;2022-09-02T01:40:46;14.90;99.90
58529;DHT22;44322;52.968;5.816;2022-09-02T01:43:16;14.80;99.90
58529;DHT22;44322;52.968;5.816;2022-09-02T01:45:47;14.80;99.90
58529;DHT22;44322;52.968;5.816;2022-09-02T01:48:14;14.80;99.90
58529;DHT22;44322;52.968;5.816;2022-09-02T01:50:43;14.70;99.90
58529;DHT22;44322;52.968;5.816;2022-09-02T01:53:09;14.70;99.90
58529;DHT22;44322;52.968;5.816;2022-09-02T01:55:35;14.60;99.90
58529;DHT22;44322;52.968;5.816;2022-09-02T01:58:01;14.60;99.90
58529;DHT22;44322;52.968;5.816;2022-09-02T02:00:27;14.60;99.90
58529;DHT22;44322;52.968;5.816;2022-09-02T02:02:54;14.60;99.90
58529;DHT22;44322;52.968;5.816;2022-09-02T02:05:20;14.50;99.90
58529;DHT22;44322;52.968;5.816;2022-09-02T02:07:48;14.50;99.90
58529;DHT22;44322;52.968;5.816;2022-09-02T02:10:17;14.50;99.90
58529;DHT22;44322;52.968;5.816;2022-09-02T02:12:44;14.50;99.90
58529;DHT22;44322;52.968;5.816;2022-09-02T02:15:15;14.40;99.90
58529;DHT22;44322;52.968;5.816;2022-09-02T02:17:42;14.40;99.90
58529;DHT22;44322;52.968;5.816;2022-09-02T02:20:09;14.40;99.90
58529;DHT22;44322;52.968;5.816;2022-09-02T02:22:36;14.40;99.90
58529;DHT22;44322;52.968;5.816;2022-09-02T02:25:04;14.30;99.90
58529;DHT22;44322;52.968;5.816;2022-09-02T02:27:30;14.30;99.90
58529;DHT22;44322;52.968;5.816;2022-09-02T02:30:00;14.30;99.90
58529;DHT22;44322;52.968;5.816;2022-09-02T02:32:26;14.20;99.90
58529;DHT22;44322;52.968;5.816;2022-09-02T02:34:53;14.20;99.90
58529;DHT22;44322;52.968;5.816;2022-09-02T02:37:19;14.20;99.90
58529;DHT22;44322;52.968;5.816;2022-09-02T02:39:46;14.20;99.90
58529;DHT22;44322;52.968;5.816;2022-09-02T02:42:12;14.10;99.90
58529;DHT22;44322;52.968;5.816;2022-09-02T02:44:41;14.10;99.90
58529;DHT22;44322;52.968;5.816;2022-09-02T02:47:08;14.10;99.90
58529;DHT22;44322;52.968;5.816;2022-09-02T02:49:39;14.00;99.90
58529;DHT22;44322;52.968;5.816;2022-09-02T02:52:06;14.00;99.90
58529;DHT22;44322;52.968;5.816;2022-09-02T02:54:33;14.00;99.90
58529;DHT22;44322;52.968;5.816;2022-09-02T02:56:59;14.00;99.90
58529;DHT22;44322;52.968;5.816;2022-09-02T02:59:25;13.90;99.90
58529;DHT22;44322;52.968;5.816;2022-09-02T03:01:51;13.90;99.90
58529;DHT22;44322;52.968;5.816;2022-09-02T03:04:17;13.90;99.90
58529;DHT22;44322;52.968;5.816;2022-09-02T03:06:44;13.90;99.90
58529;DHT22;44322;52.968;5.816;2022-09-02T03:09:10;13.90;99.90
58529;DHT22;44322;52.968;5.816;2022-09-02T03:11:37;13.90;99.90
58529;DHT22;44322;52.968;5.816;2022-09-02T03:14:03;13.80;99.90
58529;DHT22;44322;52.968;5.816;2022-09-02T03:16:34;13.80;99.90
58529;DHT22;44322;52.968;5.816;2022-09-02T03:19:00;13.80;99.90
58529;DHT22;44322;52.968;5.816;2022-09-02T03:21:27;13.80;99.90
58529;DHT22;44322;52.968;5.816;2022-09-02T03:23:54;13.70;99.90
58529;DHT22;44322;52.968;5.816;2022-09-02T03:26:22;13.70;99.90
58529;DHT22;44322;52.968;5.816;2022-09-02T03:28:49;13.70;99.90
58529;DHT22;44322;52.968;5.816;2022-09-02T03:31:21;13.70;99.90
58529;DHT22;44322;52.968;5.816;2022-09-02T03:33:48;13.70;99.90
58529;DHT22;44322;52.968;5.816;2022-09-02T03:36:33;13.70;99.90
58529;DHT22;44322;52.968;5.816;2022-09-02T03:39:00;13.70;99.90
58529;DHT22;44322;52.968;5.816;2022-09-02T03:41:28;13.60;99.90
58529;DHT22;44322;52.968;5.816;2022-09-02T03:43:55;13.60;99.90
58529;DHT22;44322;52.968;5.816;2022-09-02T03:46:21;13.60;99.90
58529;DHT22;44322;52.968;5.816;2022-09-02T03:48:47;13.60;99.90
58529;DHT22;44322;52.968;5.816;2022-09-02T03:51:20;13.50;99.90
58529;DHT22;44322;52.968;5.816;2022-09-02T03:53:46;13.50;99.90
58529;DHT22;44322;52.968;5.816;2022-09-02T03:56:15;13.50;99.90
58529;DHT22;44322;52.968;5.816;2022-09-02T03:58:43;13.50;99.90
58529;DHT22;44322;52.968;5.816;2022-09-02T04:01:18;13.50;99.90
58529;DHT22;44322;52.968;5.816;2022-09-02T04:03:44;13.50;99.90
58529;DHT22;44322;52.968;5.816;2022-09-02T04:06:13;13.40;99.90
58529;DHT22;44322;52.968;5.816;2022-09-02T04:08:43;13.40;99.90
58529;DHT22;44322;52.968;5.816;2022-09-02T04:11:12;13.40;99.90
58529;DHT22;44322;52.968;5.816;2022-09-02T04:13:39;13.40;99.90
58529;DHT22;44322;52.968;5.816;2022-09-02T04:16:15;13.40;99.90
58529;DHT22;44322;52.968;5.816;2022-09-02T04:18:42;13.40;99.90
58529;DHT22;44322;52.968;5.816;2022-09-02T04:21:10;13.30;99.90
58529;DHT22;44322;52.968;5.816;2022-09-02T04:23:37;13.30;99.90
58529;DHT22;44322;52.968;5.816;2022-09-02T04:26:07;13.30;99.90
58529;DHT22;44322;52.968;5.816;2022-09-02T04:28:33;13.20;99.90
58529;DHT22;44322;52.968;5.816;2022-09-02T04:31:02;13.20;99.90
58529;DHT22;44322;52.968;5.816;2022-09-02T04:33:28;13.20;99.90
58529;DHT22;44322;52.968;5.816;2022-09-02T04:35:55;13.20;99.90
58529;DHT22;44322;52.968;5.816;2022-09-02T04:38:21;13.20;99.90
58529;DHT22;44322;52.968;5.816;2022-09-02T04:40:47;13.20;99.90
58529;DHT22;44322;52.968;5.816;2022-09-02T04:43:16;13.10;99.90
58529;DHT22;44322;52.968;5.816;2022-09-02T04:45:44;13.20;99.90
58529;DHT22;44322;52.968;5.816;2022-09-02T04:48:12;13.10;99.90
58529;DHT22;44322;52.968;5.816;2022-09-02T04:50:40;13.10;99.90
58529;DHT22;44322;52.968;5.816;2022-09-02T04:53:07;13.10;99.90
58529;DHT22;44322;52.968;5.816;2022-09-02T04:55:33;13.10;99.90
58529;DHT22;44322;52.968;5.816;2022-09-02T04:58:00;13.10;99.90
58529;DHT22;44322;52.968;5.816;2022-09-02T05:00:27;13.10;99.90
58529;DHT22;44322;52.968;5.816;2022-09-02T05:02:54;13.10;99.90
58529;DHT22;44322;52.968;5.816;2022-09-02T05:05:21;13.10;99.90
58529;DHT22;44322;52.968;5.816;2022-09-02T05:07:47;13.10;99.90
58529;DHT22;44322;52.968;5.816;2022-09-02T05:10:15;13.10;99.90
58529;DHT22;44322;52.968;5.816;2022-09-02T05:12:43;13.10;99.90
58529;DHT22;44322;52.968;5.816;2022-09-02T05:15:10;13.10;99.90
58529;DHT22;44322;52.968;5.816;2022-09-02T05:17:37;13.10;99.90
58529;DHT22;44322;52.968;5.816;2022-09-02T05:20:06;13.10;99.90
58529;DHT22;44322;52.968;5.816;2022-09-02T05:22:33;13.10;99.90
58529;DHT22;44322;52.968;5.816;2022-09-02T05:25:02;13.10;99.90
58529;DHT22;44322;52.968;5.816;2022-09-02T05:27:28;13.10;99.90
58529;DHT22;44322;52.968;5.816;2022-09-02T05:29:56;13.20;99.90
58529;DHT22;44322;52.968;5.816;2022-09-02T05:32:24;13.20;99.90
58529;DHT22;44322;52.968;5.816;2022-09-02T05:34:52;13.20;99.90
58529;DHT22;44322;52.968;5.816;2022-09-02T05:37:18;13.20;99.90
58529;DHT22;44322;52.968;5.816;2022-09-02T05:39:44;13.20;99.90
58529;DHT22;44322;52.968;5.816;2022-09-02T05:42:09;13.20;99.90
58529;DHT22;44322;52.968;5.816;2022-09-02T05:44:36;13.30;99.90
58529;DHT22;44322;52.968;5.816;2022-09-02T05:47:03;13.30;99.90
58529;DHT22;44322;52.968;5.816;2022-09-02T05:49:30;13.30;99.90
58529;DHT22;44322;52.968;5.816;2022-09-02T05:52:00;13.40;99.90
58529;DHT22;44322;52.968;5.816;2022-09-02T05:54:38;13.40;99.90
58529;DHT22;44322;52.968;5.816;2022-09-02T05:57:11;13.50;99.90
58529;DHT22;44322;52.968;5.816;2022-09-02T05:59:42;13.50;99.90
58529;DHT22;44322;52.968;5.816;2022-09-02T06:02:13;13.50;99.90
58529;DHT22;44322;52.968;5.816;2022-09-02T06:04:41;13.60;99.90
58529;DHT22;44322;52.968;5.816;2022-09-02T06:07:09;13.60;99.90
58529;DHT22;44322;52.968;5.816;2022-09-02T06:09:35;13.70;99.90
58529;DHT22;44322;52.968;5.816;2022-09-02T06:12:01;13.70;99.90
58529;DHT22;44322;52.968;5.816;2022-09-02T06:14:30;13.70;99.90
58529;DHT22;44322;52.968;5.816;2022-09-02T06:16:57;13.80;99.90
58529;DHT22;44322;52.968;5.816;2022-09-02T06:19:30;13.90;99.90
58529;DHT22;44322;52.968;5.816;2022-09-02T06:22:00;13.90;99.90
58529;DHT22;44322;52.968;5.816;2022-09-02T06:24:28;14.00;99.90
58529;DHT22;44322;52.968;5.816;2022-09-02T06:26:54;14.00;99.90
58529;DHT22;44322;52.968;5.816;2022-09-02T06:29:23;14.10;99.90
58529;DHT22;44322;52.968;5.816;2022-09-02T06:31:49;14.10;99.90
58529;DHT22;44322;52.968;5.816;2022-09-02T06:34:19;14.20;99.90
58529;DHT22;44322;52.968;5.816;2022-09-02T06:36:48;14.30;99.90
58529;DHT22;44322;52.968;5.816;2022-09-02T06:39:19;14.30;99.90
58529;DHT22;44322;52.968;5.816;2022-09-02T06:41:46;14.40;99.90
58529;DHT22;44322;52.968;5.816;2022-09-02T06:44:15;14.50;99.90
58529;DHT22;44322;52.968;5.816;2022-09-02T06:46:45;14.60;99.90
58529;DHT22;44322;52.968;5.816;2022-09-02T06:49:14;14.60;99.90
58529;DHT22;44322;52.968;5.816;2022-09-02T06:51:45;14.70;99.90
58529;DHT22;44322;52.968;5.816;2022-09-02T06:54:16;14.80;99.90
58529;DHT22;44322;52.968;5.816;2022-09-02T06:56:44;14.90;99.90
58529;DHT22;44322;52.968;5.816;2022-09-02T06:59:11;15.00;99.90
58529;DHT22;44322;52.968;5.816;2022-09-02T07:01:41;15.00;99.90
58529;DHT22;44322;52.968;5.816;2022-09-02T07:04:07;15.10;99.90
58529;DHT22;44322;52.968;5.816;2022-09-02T07:06:53;15.20;99.90
58529;DHT22;44322;52.968;5.816;2022-09-02T07:09:24;15.30;99.90
58529;DHT22;44322;52.968;5.816;2022-09-02T07:12:00;15.50;99.90
58529;DHT22;44322;52.968;5.816;2022-09-02T07:14:29;15.50;99.90
58529;DHT22;44322;52.968;5.816;2022-09-02T07:16:56;15.60;99.90
58529;DHT22;44322;52.968;5.816;2022-09-02T07:19:28;15.70;99.90
58529;DHT22;44322;52.968;5.816;2022-09-02T07:21:54;15.80;99.90
58529;DHT22;44322;52.968;5.816;2022-09-02T07:24:22;15.90;99.90
58529;DHT22;44322;52.968;5.816;2022-09-02T07:26:54;16.00;99.90
58529;DHT22;44322;52.968;5.816;2022-09-02T07:29:20;16.10;99.90
58529;DHT22;44322;52.968;5.816;2022-09-02T07:31:47;16.20;99.90
58529;DHT22;44322;52.968;5.816;2022-09-02T07:34:18;16.30;99.90
58529;DHT22;44322;52.968;5.816;2022-09-02T07:36:47;16.40;99.90
58529;DHT22;44322;52.968;5.816;2022-09-02T07:39:18;16.50;99.90
58529;DHT22;44322;52.968;5.816;2022-09-02T07:41:47;16.60;99.90
58529;DHT22;44322;52.968;5.816;2022-09-02T07:44:14;16.70;99.90
58529;DHT22;44322;52.968;5.816;2022-09-02T07:46:42;16.80;99.90
58529;DHT22;44322;52.968;5.816;2022-09-02T07:49:10;16.90;99.90
58529;DHT22;44322;52.968;5.816;2022-09-02T07:51:39;17.00;99.90
58529;DHT22;44322;52.968;5.816;2022-09-02T07:54:08;17.10;99.90
58529;DHT22;44322;52.968;5.816;2022-09-02T07:56:34;17.20;99.90
58529;DHT22;44322;52.968;5.816;2022-09-02T07:59:00;17.30;99.90
58529;DHT22;44322;52.968;5.816;2022-09-02T08:01:26;17.40;99.90
58529;DHT22;44322;52.968;5.816;2022-09-02T08:03:53;17.50;99.90
58529;DHT22;44322;52.968;5.816;2022-09-02T08:06:23;17.60;99.90
58529;DHT22;44322;52.968;5.816;2022-09-02T08:08:52;17.70;99.90
58529;DHT22;44322;52.968;5.816;2022-09-02T08:11:18;17.80;99.90
58529;DHT22;44322;52.968;5.816;2022-09-02T08:13:44;17.90;99.90
58529;DHT22;44322;52.968;5.816;2022-09-02T08:16:10;18.00;99.90
58529;DHT22;44322;52.968;5.816;2022-09-02T08:18:36;18.10;99.90
58529;DHT22;44322;52.968;5.816;2022-09-02T08:21:02;18.30;99.40
58529;DHT22;44322;52.968;5.816;2022-09-02T08:23:29;18.40;99.20
58529;DHT22;44322;52.968;5.816;2022-09-02T08:25:57;18.40;99.70
58529;DHT22;44322;52.968;5.816;2022-09-02T08:28:23;18.60;99.30
58529;DHT22;44322;52.968;5.816;2022-09-02T08:30:48;18.70;97.90
58529;DHT22;44322;52.968;5.816;2022-09-02T08:33:14;18.70;98.10
58529;DHT22;44322;52.968;5.816;2022-09-02T08:35:40;18.90;97.10
58529;DHT22;44322;52.968;5.816;2022-09-02T08:38:06;19.00;96.70
58529;DHT22;44322;52.968;5.816;2022-09-02T08:40:38;19.20;95.70
58529;DHT22;44322;52.968;5.816;2022-09-02T08:43:33;19.70;93.60
58529;DHT22;44322;52.968;5.816;2022-09-02T08:46:03;20.50;91.50
58529;DHT22;44322;52.968;5.816;2022-09-02T08:48:44;21.10;79.60
58529;DHT22;44322;52.968;5.816;2022-09-02T08:51:37;21.60;74.50
58529;DHT22;44322;52.968;5.816;2022-09-02T08:55:02;22.10;70.70
58529;DHT22;44322;52.968;5.816;2022-09-02T08:57:22;22.50;66.90
58529;DHT22;44322;52.968;5.816;2022-09-02T08:59:57;22.80;61.10
58529;DHT22;44322;52.968;5.816;2022-09-02T09:05:44;23.30;58.10
58529;DHT22;44322;52.968;5.816;2022-09-02T09:08:33;23.50;58.00
58529;DHT22;44322;52.968;5.816;2022-09-02T09:11:29;23.60;56.80
58529;DHT22;44322;52.968;5.816;2022-09-02T09:19:13;23.30;58.70
58529;DHT22;44322;52.968;5.816;2022-09-02T09:21:40;23.20;60.00
58529;DHT22;44322;52.968;5.816;2022-09-02T09:26:52;23.00;61.30
58529;DHT22;44322;52.968;5.816;2022-09-02T09:29:19;22.90;61.00
58529;DHT22;44322;52.968;5.816;2022-09-02T09:31:49;23.00;61.50
58529;DHT22;44322;52.968;5.816;2022-09-02T09:34:17;23.00;60.00
58529;DHT22;44322;52.968;5.816;2022-09-02T09:36:52;23.10;59.30
58529;DHT22;44322;52.968;5.816;2022-09-02T09:39:28;23.20;58.30
58529;DHT22;44322;52.968;5.816;2022-09-02T09:42:00;23.30;58.70
58529;DHT22;44322;52.968;5.816;2022-09-02T09:44:39;23.40;57.60
58529;DHT22;44322;52.968;5.816;2022-09-02T09:47:09;23.40;57.30
58529;DHT22;44322;52.968;5.816;2022-09-02T09:49:36;23.50;56.90
58529;DHT22;44322;52.968;5.816;2022-09-02T09:52:04;23.60;55.50
58529;DHT22;44322;52.968;5.816;2022-09-02T09:54:30;23.70;55.30
58529;DHT22;44322;52.968;5.816;2022-09-02T09:57:13;23.80;55.40
58529;DHT22;44322;52.968;5.816;2022-09-02T09:59:41;23.90;55.20
58529;DHT22;44322;52.968;5.816;2022-09-02T10:02:21;24.00;54.00
58529;DHT22;44322;52.968;5.816;2022-09-02T10:04:54;24.10;54.80
58529;DHT22;44322;52.968;5.816;2022-09-02T10:07:56;24.10;53.50
58529;DHT22;44322;52.968;5.816;2022-09-02T10:10:24;24.20;53.50
58529;DHT22;44322;52.968;5.816;2022-09-02T10:12:53;24.40;53.00
58529;DHT22;44322;52.968;5.816;2022-09-02T10:15:42;24.50;51.20
58529;DHT22;44322;52.968;5.816;2022-09-02T10:18:34;24.60;50.90
58529;DHT22;44322;52.968;5.816;2022-09-02T10:26:51;25.00;50.40
58529;DHT22;44322;52.968;5.816;2022-09-02T10:40:32;25.20;47.10
58529;DHT22;44322;52.968;5.816;2022-09-02T10:43:10;25.20;46.30
58529;DHT22;44322;52.968;5.816;2022-09-02T10:45:45;25.20;47.00
58529;DHT22;44322;52.968;5.816;2022-09-02T10:56:44;25.40;46.40
58529;DHT22;44322;52.968;5.816;2022-09-02T10:59:19;25.50;45.30
58529;DHT22;44322;52.968;5.816;2022-09-02T11:01:53;25.50;45.30
58529;DHT22;44322;52.968;5.816;2022-09-02T11:04:24;25.60;45.00
58529;DHT22;44322;52.968;5.816;2022-09-02T11:06:59;25.60;45.20
58529;DHT22;44322;52.968;5.816;2022-09-02T11:09:34;25.60;45.30
58529;DHT22;44322;52.968;5.816;2022-09-02T11:12:07;25.70;45.50
58529;DHT22;44322;52.968;5.816;2022-09-02T11:14:39;25.70;45.40
58529;DHT22;44322;52.968;5.816;2022-09-02T11:17:23;25.80;45.70
58529;DHT22;44322;52.968;5.816;2022-09-02T11:22:51;26.00;45.20
58529;DHT22;44322;52.968;5.816;2022-09-02T11:25:29;26.10;44.80
58529;DHT22;44322;52.968;5.816;2022-09-02T11:31:04;26.30;44.60
58529;DHT22;44322;52.968;5.816;2022-09-02T11:33:56;26.40;45.00
58529;DHT22;44322;52.968;5.816;2022-09-02T11:36:25;26.50;44.40
58529;DHT22;44322;52.968;5.816;2022-09-02T11:39:07;26.60;44.40
58529;DHT22;44322;52.968;5.816;2022-09-02T11:53:40;26.80;43.40
58529;DHT22;44322;52.968;5.816;2022-09-02T11:55:49;26.80;43.50
58529;DHT22;44322;52.968;5.816;2022-09-02T12:03:28;27.20;42.80
58529;DHT22;44322;52.968;5.816;2022-09-02T12:06:10;27.30;42.10
58529;DHT22;44322;52.968;5.816;2022-09-02T12:11:10;27.50;41.80
58529;DHT22;44322;52.968;5.816;2022-09-02T12:13:54;27.60;42.20
58529;DHT22;44322;52.968;5.816;2022-09-02T12:21:32;27.90;41.00
58529;DHT22;44322;52.968;5.816;2022-09-02T12:24:05;28.00;41.20
58529;DHT22;44322;52.968;5.816;2022-09-02T12:31:50;28.30;40.50
58529;DHT22;44322;52.968;5.816;2022-09-02T12:34:53;28.40;40.30
58529;DHT22;44322;52.968;5.816;2022-09-02T12:37:50;28.50;40.70
58529;DHT22;44322;52.968;5.816;2022-09-02T12:40:27;28.60;40.30
58529;DHT22;44322;52.968;5.816;2022-09-02T12:42:58;28.60;39.30
58529;DHT22;44322;52.968;5.816;2022-09-02T12:45:30;28.60;39.60
58529;DHT22;44322;52.968;5.816;2022-09-02T12:48:11;28.60;39.60
58529;DHT22;44322;52.968;5.816;2022-09-02T12:53:45;28.80;40.10
58529;DHT22;44322;52.968;5.816;2022-09-02T12:58:54;29.00;39.80
58529;DHT22;44322;52.968;5.816;2022-09-02T13:01:46;29.10;39.70
58529;DHT22;44322;52.968;5.816;2022-09-02T13:27:40;29.50;38.60
58529;DHT22;44322;52.968;5.816;2022-09-02T13:32:31;29.50;38.30
58529;DHT22;44322;52.968;5.816;2022-09-02T13:35:02;29.50;37.90
58529;DHT22;44322;52.968;5.816;2022-09-02T13:37:42;29.50;38.10
58529;DHT22;44322;52.968;5.816;2022-09-02T13:40:29;29.50;37.80
58529;DHT22;44322;52.968;5.816;2022-09-02T13:43:18;29.50;37.90
58529;DHT22;44322;52.968;5.816;2022-09-02T13:45:46;29.50;37.90
58529;DHT22;44322;52.968;5.816;2022-09-02T13:48:27;29.40;37.70
58529;DHT22;44322;52.968;5.816;2022-09-02T13:51:10;29.30;37.70
58529;DHT22;44322;52.968;5.816;2022-09-02T13:53:44;29.30;37.90
58529;DHT22;44322;52.968;5.816;2022-09-02T13:56:24;29.30;37.80
58529;DHT22;44322;52.968;5.816;2022-09-02T14:00:04;29.40;38.00
58529;DHT22;44322;52.968;5.816;2022-09-02T14:03:11;29.50;38.70
58529;DHT22;44322;52.968;5.816;2022-09-02T14:05:43;29.50;37.80
58529;DHT22;44322;52.968;5.816;2022-09-02T14:08:25;29.40;37.40
58529;DHT22;44322;52.968;5.816;2022-09-02T14:10:53;29.30;37.40
58529;DHT22;44322;52.968;5.816;2022-09-02T14:13:21;29.40;37.40
58529;DHT22;44322;52.968;5.816;2022-09-02T14:15:48;29.50;37.20
58529;DHT22;44322;52.968;5.816;2022-09-02T14:18:19;29.70;37.10
58529;DHT22;44322;52.968;5.816;2022-09-02T14:21:15;30.00;36.70
58529;DHT22;44322;52.968;5.816;2022-09-02T14:23:50;30.20;36.80
58529;DHT22;44322;52.968;5.816;2022-09-02T14:26:44;30.30;36.30
58529;DHT22;44322;52.968;5.816;2022-09-02T14:29:13;30.50;36.70
58529;DHT22;44322;52.968;5.816;2022-09-02T14:31:40;30.60;35.50
58529;DHT22;44322;52.968;5.816;2022-09-02T14:34:32;30.70;35.60
58529;DHT22;44322;52.968;5.816;2022-09-02T14:36:58;30.90;36.20
58529;DHT22;44322;52.968;5.816;2022-09-02T14:39:24;30.90;35.30
58529;DHT22;44322;52.968;5.816;2022-09-02T14:41:55;30.80;35.10
58529;DHT22;44322;52.968;5.816;2022-09-02T14:44:27;30.70;35.20
58529;DHT22;44322;52.968;5.816;2022-09-02T14:46:59;30.50;35.20
58529;DHT22;44322;52.968;5.816;2022-09-02T14:49:33;30.40;35.40
58529;DHT22;44322;52.968;5.816;2022-09-02T14:52:15;30.30;36.00
58529;DHT22;44322;52.968;5.816;2022-09-02T14:54:47;30.20;36.00
58529;DHT22;44322;52.968;5.816;2022-09-02T14:59:59;30.00;36.30
58529;DHT22;44322;52.968;5.816;2022-09-02T15:04:54;29.70;36.20
58529;DHT22;44322;52.968;5.816;2022-09-02T15:07:21;29.50;36.30
58529;DHT22;44322;52.968;5.816;2022-09-02T15:09:47;29.50;36.10
58529;DHT22;44322;52.968;5.816;2022-09-02T15:12:22;29.40;36.20
58529;DHT22;44322;52.968;5.816;2022-09-02T15:14:50;29.20;36.80
58529;DHT22;44322;52.968;5.816;2022-09-02T15:17:16;29.10;37.10
58529;DHT22;44322;52.968;5.816;2022-09-02T15:19:42;29.10;36.70
58529;DHT22;44322;52.968;5.816;2022-09-02T15:22:09;29.00;36.90
58529;DHT22;44322;52.968;5.816;2022-09-02T15:24:48;29.00;36.80
58529;DHT22;44322;52.968;5.816;2022-09-02T15:27:16;29.10;36.50
58529;DHT22;44322;52.968;5.816;2022-09-02T15:29:42;29.00;36.20
58529;DHT22;44322;52.968;5.816;2022-09-02T15:32:11;29.00;36.20
58529;DHT22;44322;52.968;5.816;2022-09-02T15:34:37;29.00;36.20
58529;DHT22;44322;52.968;5.816;2022-09-02T15:37:04;29.00;36.70
58529;DHT22;44322;52.968;5.816;2022-09-02T15:39:30;29.10;36.40
58529;DHT22;44322;52.968;5.816;2022-09-02T15:41:56;29.10;36.30
58529;DHT22;44322;52.968;5.816;2022-09-02T15:44:25;29.10;36.50
58529;DHT22;44322;52.968;5.816;2022-09-02T15:46:52;29.10;36.10
58529;DHT22;44322;52.968;5.816;2022-09-02T15:49:18;29.00;36.40
58529;DHT22;44322;52.968;5.816;2022-09-02T15:51:45;29.00;37.10
58529;DHT22;44322;52.968;5.816;2022-09-02T15:54:13;29.00;36.80
58529;DHT22;44322;52.968;5.816;2022-09-02T15:56:41;28.90;36.60
58529;DHT22;44322;52.968;5.816;2022-09-02T15:59:10;28.90;37.10
58529;DHT22;44322;52.968;5.816;2022-09-02T16:01:39;28.90;36.80
58529;DHT22;44322;52.968;5.816;2022-09-02T16:04:06;28.80;36.70
58529;DHT22;44322;52.968;5.816;2022-09-02T16:06:33;28.80;36.70
58529;DHT22;44322;52.968;5.816;2022-09-02T16:09:00;28.70;36.70
58529;DHT22;44322;52.968;5.816;2022-09-02T16:11:27;28.50;36.90
58529;DHT22;44322;52.968;5.816;2022-09-02T16:13:53;28.20;36.80
58529;DHT22;44322;52.968;5.816;2022-09-02T16:16:19;28.00;37.10
58529;DHT22;44322;52.968;5.816;2022-09-02T16:18:52;27.80;37.60
58529;DHT22;44322;52.968;5.816;2022-09-02T16:21:19;27.70;37.90
58529;DHT22;44322;52.968;5.816;2022-09-02T16:23:46;27.60;38.20
58529;DHT22;44322;52.968;5.816;2022-09-02T16:26:22;27.50;38.00
58529;DHT22;44322;52.968;5.816;2022-09-02T16:28:49;27.40;38.30
58529;DHT22;44322;52.968;5.816;2022-09-02T16:31:16;27.40;38.50
58529;DHT22;44322;52.968;5.816;2022-09-02T16:33:43;27.40;38.90
58529;DHT22;44322;52.968;5.816;2022-09-02T16:36:10;27.30;38.50
58529;DHT22;44322;52.968;5.816;2022-09-02T16:38:36;27.30;38.40
58529;DHT22;44322;52.968;5.816;2022-09-02T16:41:02;27.30;38.30
58529;DHT22;44322;52.968;5.816;2022-09-02T16:43:32;27.30;38.40
58529;DHT22;44322;52.968;5.816;2022-09-02T16:45:59;27.30;38.70
58529;DHT22;44322;52.968;5.816;2022-09-02T16:48:30;27.30;39.00
58529;DHT22;44322;52.968;5.816;2022-09-02T16:51:01;27.40;39.20
58529;DHT22;44322;52.968;5.816;2022-09-02T16:53:27;27.40;39.20
58529;DHT22;44322;52.968;5.816;2022-09-02T16:55:53;27.30;39.00
58529;DHT22;44322;52.968;5.816;2022-09-02T16:58:20;27.30;38.90
58529;DHT22;44322;52.968;5.816;2022-09-02T17:00:48;27.30;38.60
58529;DHT22;44322;52.968;5.816;2022-09-02T17:03:17;27.20;38.50
58529;DHT22;44322;52.968;5.816;2022-09-02T17:05:47;27.00;38.50
58529;DHT22;44322;52.968;5.816;2022-09-02T17:08:14;27.00;39.00
58529;DHT22;44322;52.968;5.816;2022-09-02T17:10:42;26.80;39.00
58529;DHT22;44322;52.968;5.816;2022-09-02T17:13:08;26.70;39.20
58529;DHT22;44322;52.968;5.816;2022-09-02T17:15:36;26.50;39.40
58529;DHT22;44322;52.968;5.816;2022-09-02T17:18:02;26.40;39.40
58529;DHT22;44322;52.968;5.816;2022-09-02T17:20:28;26.30;39.60
58529;DHT22;44322;52.968;5.816;2022-09-02T17:22:54;26.20;39.80
58529;DHT22;44322;52.968;5.816;2022-09-02T17:25:21;26.10;40.20
58529;DHT22;44322;52.968;5.816;2022-09-02T17:27:47;26.00;40.50
58529;DHT22;44322;52.968;5.816;2022-09-02T17:30:13;25.90;40.40
58529;DHT22;44322;52.968;5.816;2022-09-02T17:32:40;25.80;40.80
58529;DHT22;44322;52.968;5.816;2022-09-02T17:35:08;25.60;41.10
58529;DHT22;44322;52.968;5.816;2022-09-02T17:37:35;25.60;41.50
58529;DHT22;44322;52.968;5.816;2022-09-02T17:40:05;25.40;41.80
58529;DHT22;44322;52.968;5.816;2022-09-02T17:42:34;25.40;42.90